<?xml version="1.0" encoding="UTF-8" standalone="no" ?>
<gpx xmlns="http://www.topografix.com/GPX/1/1" xmlns:xsi="http://www.w3.org/2001/XMLSchema-instance" xsi:schemaLocation="http://www.topografix.com/GPX/1/1 http://www.topografix.com/GPX/1/1/gpx.xsd" version="1.1" creator="VisuGPX - https://www.visugpx.com">
  <metadata>
    <name>Dourdan_St_Cheron_v2</name>
  </metadata>
  <trk>
    <name><![CDATA[Dourdan_St_Cheron_v2]]></name>
    <trkseg>
      <trkpt lat="48.53356" lon="2.00942">
        <ele>117.37339</ele>
        <time>2020-07-14T06:57:11.000Z</time>
      </trkpt>
      <trkpt lat="48.53351" lon="2.00993">
        <ele>117.44885</ele>
        <time>2020-07-14T06:57:48.000Z</time>
      </trkpt>
      <trkpt lat="48.53348" lon="2.00979">
        <ele>117.38347</ele>
        <time>2020-07-14T06:58:00.000Z</time>
      </trkpt>
      <trkpt lat="48.53332" lon="2.00977">
        <ele>117.20916</ele>
        <time>2020-07-14T06:59:17.000Z</time>
      </trkpt>
      <trkpt lat="48.53326" lon="2.00963">
        <ele>117.15188</ele>
        <time>2020-07-14T07:00:02.000Z</time>
      </trkpt>
      <trkpt lat="48.5334" lon="2.00973">
        <ele>117.31495</ele>
        <time>2020-07-14T07:01:02.000Z</time>
      </trkpt>
      <trkpt lat="48.5332" lon="2.00957">
        <ele>117.09712</ele>
        <time>2020-07-14T07:01:28.000Z</time>
      </trkpt>
      <trkpt lat="48.53233" lon="2.00946">
        <ele>115.8353</ele>
        <time>2020-07-14T07:02:34.000Z</time>
      </trkpt>
      <trkpt lat="48.53229" lon="2.00902">
        <ele>116.50663</ele>
        <time>2020-07-14T07:02:50.000Z</time>
      </trkpt>
      <trkpt lat="48.53235" lon="2.00889">
        <ele>116.85531</ele>
        <time>2020-07-14T07:02:58.000Z</time>
      </trkpt>
      <trkpt lat="48.53207" lon="2.00862">
        <ele>115.32363</ele>
        <time>2020-07-14T07:03:22.000Z</time>
      </trkpt>
      <trkpt lat="48.53164" lon="2.00788">
        <ele>106.28974</ele>
        <time>2020-07-14T07:04:18.000Z</time>
      </trkpt>
      <trkpt lat="48.53169" lon="2.00747">
        <ele>101.61937</ele>
        <time>2020-07-14T07:04:51.000Z</time>
      </trkpt>
      <trkpt lat="48.5314" lon="2.00709">
        <ele>97.568</ele>
        <time>2020-07-14T07:05:15.000Z</time>
      </trkpt>
      <trkpt lat="48.5314" lon="2.00709">
        <ele>97.568</ele>
        <time>2020-07-14T07:05:15.000Z</time>
      </trkpt>
      <trkpt lat="48.53201" lon="2.00584">
        <ele>96.77841</ele>
        <time>2020-07-14T07:06:42.000Z</time>
      </trkpt>
      <trkpt lat="48.53223" lon="2.00496">
        <ele>96.59911</ele>
        <time>2020-07-14T07:07:30.000Z</time>
      </trkpt>
      <trkpt lat="48.53263" lon="2.00259">
        <ele>96.86357</ele>
        <time>2020-07-14T07:09:52.000Z</time>
      </trkpt>
      <trkpt lat="48.53257" lon="2.00166">
        <ele>97.32754</ele>
        <time>2020-07-14T07:10:44.000Z</time>
      </trkpt>
      <trkpt lat="48.53264" lon="2.00155">
        <ele>98.09643</ele>
        <time>2020-07-14T07:10:53.000Z</time>
      </trkpt>
      <trkpt lat="48.533" lon="2.00151">
        <ele>99.62078</ele>
        <time>2020-07-14T07:11:24.000Z</time>
      </trkpt>
      <trkpt lat="48.53309" lon="2.00091">
        <ele>99.49008</ele>
        <time>2020-07-14T07:11:58.000Z</time>
      </trkpt>
      <trkpt lat="48.53309" lon="2.00091">
        <ele>99.49008</ele>
        <time>2020-07-14T07:11:58.000Z</time>
      </trkpt>
      <trkpt lat="48.53316" lon="2.0007">
        <ele>99.68437</ele>
        <time>2020-07-14T07:12:39.000Z</time>
      </trkpt>
      <trkpt lat="48.53307" lon="1.99969">
        <ele>100.38014</ele>
        <time>2020-07-14T07:13:36.000Z</time>
      </trkpt>
      <trkpt lat="48.5331" lon="1.99912">
        <ele>100.58707</ele>
        <time>2020-07-14T07:14:02.000Z</time>
      </trkpt>
      <trkpt lat="48.53304" lon="1.99894">
        <ele>100.45135</ele>
        <time>2020-07-14T07:14:13.000Z</time>
      </trkpt>
      <trkpt lat="48.53234" lon="1.99839">
        <ele>97.89849</ele>
        <time>2020-07-14T07:15:01.000Z</time>
      </trkpt>
      <trkpt lat="48.5322" lon="1.99813">
        <ele>97.69616</ele>
        <time>2020-07-14T07:15:17.000Z</time>
      </trkpt>
      <trkpt lat="48.53202" lon="1.9966">
        <ele>98.87565</ele>
        <time>2020-07-14T07:16:26.000Z</time>
      </trkpt>
      <trkpt lat="48.53203" lon="1.99512">
        <ele>101.52512</ele>
        <time>2020-07-14T07:17:40.000Z</time>
      </trkpt>
      <trkpt lat="48.53191" lon="1.99468">
        <ele>100.9708</ele>
        <time>2020-07-14T07:18:02.000Z</time>
      </trkpt>
      <trkpt lat="48.53163" lon="1.99464">
        <ele>99.30383</ele>
        <time>2020-07-14T07:18:30.000Z</time>
      </trkpt>
      <trkpt lat="48.53163" lon="1.99464">
        <ele>99.30383</ele>
        <time>2020-07-14T07:18:30.000Z</time>
      </trkpt>
      <trkpt lat="48.53112" lon="1.99475">
        <ele>98.37473</ele>
        <time>2020-07-14T07:18:58.000Z</time>
      </trkpt>
      <trkpt lat="48.53075" lon="1.99499">
        <ele>98.65817</ele>
        <time>2020-07-14T07:19:29.000Z</time>
      </trkpt>
      <trkpt lat="48.53053" lon="1.99478">
        <ele>98.06876</ele>
        <time>2020-07-14T07:19:46.000Z</time>
      </trkpt>
      <trkpt lat="48.52986" lon="1.9929">
        <ele>98.1569</ele>
        <time>2020-07-14T07:21:31.000Z</time>
      </trkpt>
      <trkpt lat="48.52962" lon="1.99203">
        <ele>99.22974</ele>
        <time>2020-07-14T07:22:21.000Z</time>
      </trkpt>
      <trkpt lat="48.52957" lon="1.9915">
        <ele>99.07649</ele>
        <time>2020-07-14T07:22:48.000Z</time>
      </trkpt>
      <trkpt lat="48.52957" lon="1.9915">
        <ele>99.07649</ele>
        <time>2020-07-14T07:22:48.000Z</time>
      </trkpt>
      <trkpt lat="48.52964" lon="1.99017">
        <ele>98.94874</ele>
        <time>2020-07-14T07:23:51.000Z</time>
      </trkpt>
      <trkpt lat="48.52941" lon="1.98909">
        <ele>99.44969</ele>
        <time>2020-07-14T07:24:50.000Z</time>
      </trkpt>
      <trkpt lat="48.52946" lon="1.98777">
        <ele>99.25584</ele>
        <time>2020-07-14T07:25:54.000Z</time>
      </trkpt>
      <trkpt lat="48.52972" lon="1.98759">
        <ele>98.80509</ele>
        <time>2020-07-14T07:26:16.000Z</time>
      </trkpt>
      <trkpt lat="48.53118" lon="1.98731">
        <ele>102.10979</ele>
        <time>2020-07-14T07:28:05.000Z</time>
      </trkpt>
      <trkpt lat="48.53118" lon="1.98709">
        <ele>102.14947</ele>
        <time>2020-07-14T07:28:19.000Z</time>
      </trkpt>
      <trkpt lat="48.53118" lon="1.98709">
        <ele>102.14947</ele>
        <time>2020-07-14T07:28:19.000Z</time>
      </trkpt>
      <trkpt lat="48.53103" lon="1.98612">
        <ele>101.52172</ele>
        <time>2020-07-14T07:29:09.000Z</time>
      </trkpt>
      <trkpt lat="48.52959" lon="1.98624">
        <ele>98.71288</ele>
        <time>2020-07-14T07:31:15.000Z</time>
      </trkpt>
      <trkpt lat="48.52944" lon="1.98599">
        <ele>98.8731</ele>
        <time>2020-07-14T07:31:33.000Z</time>
      </trkpt>
      <trkpt lat="48.52944" lon="1.98599">
        <ele>98.8731</ele>
        <time>2020-07-14T07:31:33.000Z</time>
      </trkpt>
      <trkpt lat="48.5294" lon="1.98575">
        <ele>98.83561</ele>
        <time>2020-07-14T07:31:46.000Z</time>
      </trkpt>
      <trkpt lat="48.52948" lon="1.98505">
        <ele>98.35342</ele>
        <time>2020-07-14T07:32:26.000Z</time>
      </trkpt>
      <trkpt lat="48.52937" lon="1.98476">
        <ele>98.5167</ele>
        <time>2020-07-14T07:32:45.000Z</time>
      </trkpt>
      <trkpt lat="48.52933" lon="1.98412">
        <ele>99.05722</ele>
        <time>2020-07-14T07:33:21.000Z</time>
      </trkpt>
      <trkpt lat="48.52948" lon="1.9838">
        <ele>99.10919</ele>
        <time>2020-07-14T07:33:48.000Z</time>
      </trkpt>
      <trkpt lat="48.52955" lon="1.98226">
        <ele>99.55454</ele>
        <time>2020-07-14T07:35:17.000Z</time>
      </trkpt>
      <trkpt lat="48.52929" lon="1.9812">
        <ele>99.74464</ele>
        <time>2020-07-14T07:37:01.000Z</time>
      </trkpt>
      <trkpt lat="48.52937" lon="1.98112">
        <ele>99.81241</ele>
        <time>2020-07-14T07:38:17.000Z</time>
      </trkpt>
      <trkpt lat="48.52951" lon="1.98126">
        <ele>99.98906</ele>
        <time>2020-07-14T07:38:48.000Z</time>
      </trkpt>
      <trkpt lat="48.52951" lon="1.98126">
        <ele>99.98906</ele>
        <time>2020-07-14T07:38:48.000Z</time>
      </trkpt>
      <trkpt lat="48.52987" lon="1.98076">
        <ele>104.02087</ele>
        <time>2020-07-14T07:39:23.000Z</time>
      </trkpt>
      <trkpt lat="48.53003" lon="1.9801">
        <ele>105.40581</ele>
        <time>2020-07-14T07:40:03.000Z</time>
      </trkpt>
      <trkpt lat="48.53016" lon="1.98014">
        <ele>107.0204</ele>
        <time>2020-07-14T07:40:16.000Z</time>
      </trkpt>
      <trkpt lat="48.53065" lon="1.98084">
        <ele>112.70961</ele>
        <time>2020-07-14T07:41:15.000Z</time>
      </trkpt>
      <trkpt lat="48.53234" lon="1.98023">
        <ele>120.15129</ele>
        <time>2020-07-14T07:43:29.000Z</time>
      </trkpt>
      <trkpt lat="48.53262" lon="1.98037">
        <ele>120.88975</ele>
        <time>2020-07-14T07:43:56.000Z</time>
      </trkpt>
      <trkpt lat="48.53262" lon="1.98037">
        <ele>120.88975</ele>
      </trkpt>
      <trkpt lat="48.53309" lon="1.97969">
        <ele>112.50237</ele>
      </trkpt>
      <trkpt lat="48.53357" lon="1.97999">
        <ele>113.55057</ele>
      </trkpt>
      <trkpt lat="48.53464" lon="1.97908">
        <ele>114.20948</ele>
      </trkpt>
      <trkpt lat="48.53576" lon="1.97838">
        <ele>116.65103</ele>
      </trkpt>
      <trkpt lat="48.53656" lon="1.97893">
        <ele>124.95535</ele>
      </trkpt>
      <trkpt lat="48.53647" lon="1.98009">
        <ele>138.65959</ele>
      </trkpt>
      <trkpt lat="48.53647" lon="1.98009">
        <ele>138.65959</ele>
      </trkpt>
      <trkpt lat="48.53724" lon="1.98003">
        <ele>145.72615</ele>
      </trkpt>
      <trkpt lat="48.53806" lon="1.97896">
        <ele>149.08344</ele>
      </trkpt>
      <trkpt lat="48.53852" lon="1.97866">
        <ele>151.92183</ele>
      </trkpt>
      <trkpt lat="48.53852" lon="1.97866">
        <ele>151.92183</ele>
        <time>2020-07-14T07:57:40.000Z</time>
      </trkpt>
      <trkpt lat="48.54014" lon="1.97951">
        <ele>142.08226</ele>
        <time>2020-07-14T08:00:45.000Z</time>
      </trkpt>
      <trkpt lat="48.54014" lon="1.97951">
        <ele>142.08226</ele>
      </trkpt>
      <trkpt lat="48.54213" lon="1.98041">
        <ele>143.94901</ele>
      </trkpt>
      <trkpt lat="48.54213" lon="1.98041">
        <ele>143.94901</ele>
      </trkpt>
      <trkpt lat="48.54338" lon="1.98196">
        <ele>158.54343</ele>
      </trkpt>
      <trkpt lat="48.54565" lon="1.98505">
        <ele>160.39997</ele>
      </trkpt>
      <trkpt lat="48.54565" lon="1.98505">
        <ele>160.39997</ele>
      </trkpt>
      <trkpt lat="48.54679" lon="1.98685">
        <ele>159.90257</ele>
      </trkpt>
      <trkpt lat="48.54679" lon="1.98685">
        <ele>159.90257</ele>
      </trkpt>
      <trkpt lat="48.54684" lon="1.98659">
        <ele>160.23089</ele>
      </trkpt>
      <trkpt lat="48.54642" lon="1.98713">
        <ele>159.51553</ele>
      </trkpt>
      <trkpt lat="48.54448" lon="1.99023">
        <ele>160.44787</ele>
      </trkpt>
      <trkpt lat="48.54448" lon="1.99023">
        <ele>160.44787</ele>
      </trkpt>
      <trkpt lat="48.54412" lon="1.99079">
        <ele>160.25181</ele>
      </trkpt>
      <trkpt lat="48.54396" lon="1.99246">
        <ele>160.90881</ele>
      </trkpt>
      <trkpt lat="48.54453" lon="1.99346">
        <ele>161.35038</ele>
      </trkpt>
      <trkpt lat="48.54468" lon="1.99455">
        <ele>161.10007</ele>
      </trkpt>
      <trkpt lat="48.54468" lon="1.99455">
        <ele>161.10007</ele>
      </trkpt>
      <trkpt lat="48.54471" lon="1.99464">
        <ele>161.15468</ele>
      </trkpt>
      <trkpt lat="48.54544" lon="1.99473">
        <ele>160.72504</ele>
      </trkpt>
      <trkpt lat="48.5463" lon="1.99482">
        <ele>159.59168</ele>
      </trkpt>
      <trkpt lat="48.54639" lon="1.99668">
        <ele>158.41113</ele>
      </trkpt>
      <trkpt lat="48.54749" lon="1.99783">
        <ele>154.66578</ele>
      </trkpt>
      <trkpt lat="48.54764" lon="1.99829">
        <ele>153.75851</ele>
      </trkpt>
      <trkpt lat="48.54764" lon="1.99829">
        <ele>153.75851</ele>
      </trkpt>
      <trkpt lat="48.54771" lon="1.99843">
        <ele>153.08163</ele>
      </trkpt>
      <trkpt lat="48.54762" lon="2.00002">
        <ele>151.82034</ele>
      </trkpt>
      <trkpt lat="48.5471" lon="2.00277">
        <ele>151.70543</ele>
      </trkpt>
      <trkpt lat="48.5469" lon="2.00452">
        <ele>152.0943</ele>
      </trkpt>
      <trkpt lat="48.5469" lon="2.00452">
        <ele>152.0943</ele>
      </trkpt>
      <trkpt lat="48.54914" lon="2.00239">
        <ele>139.89456</ele>
      </trkpt>
      <trkpt lat="48.55289" lon="2.00243">
        <ele>134.46256</ele>
      </trkpt>
      <trkpt lat="48.55394" lon="2.00252">
        <ele>123.28989</ele>
      </trkpt>
      <trkpt lat="48.5546" lon="2.00336">
        <ele>116.91686</ele>
      </trkpt>
      <trkpt lat="48.5546" lon="2.00336">
        <ele>116.91686</ele>
        <time>2020-07-14T09:14:16.000Z</time>
      </trkpt>
      <trkpt lat="48.55473" lon="2.00391">
        <ele>115.82689</ele>
        <time>2020-07-14T09:14:48.000Z</time>
      </trkpt>
      <trkpt lat="48.55519" lon="2.00459">
        <ele>114.64132</ele>
        <time>2020-07-14T09:15:36.000Z</time>
      </trkpt>
      <trkpt lat="48.55542" lon="2.0047">
        <ele>114.0496</ele>
        <time>2020-07-14T09:15:53.000Z</time>
      </trkpt>
      <trkpt lat="48.55617" lon="2.00457">
        <ele>113.64106</ele>
        <time>2020-07-14T09:16:54.000Z</time>
      </trkpt>
      <trkpt lat="48.55744" lon="2.01023">
        <ele>114.2191</ele>
        <time>2020-07-14T09:22:00.000Z</time>
      </trkpt>
      <trkpt lat="48.55744" lon="2.01023">
        <ele>114.2191</ele>
        <time>2020-07-14T09:22:00.000Z</time>
      </trkpt>
      <trkpt lat="48.5576" lon="2.01044">
        <ele>115.12767</ele>
        <time>2020-07-14T09:22:14.000Z</time>
      </trkpt>
      <trkpt lat="48.55801" lon="2.01039">
        <ele>117.53763</ele>
        <time>2020-07-14T09:22:46.000Z</time>
      </trkpt>
      <trkpt lat="48.55911" lon="2.00977">
        <ele>120.13427</ele>
        <time>2020-07-14T09:24:19.000Z</time>
      </trkpt>
      <trkpt lat="48.56047" lon="2.00955">
        <ele>123.32227</ele>
        <time>2020-07-14T09:26:03.000Z</time>
      </trkpt>
      <trkpt lat="48.56171" lon="2.00901">
        <ele>128.55099</ele>
        <time>2020-07-14T09:27:44.000Z</time>
      </trkpt>
      <trkpt lat="48.56318" lon="2.00909">
        <ele>139.51563</ele>
        <time>2020-07-14T09:30:18.000Z</time>
      </trkpt>
      <trkpt lat="48.56318" lon="2.00909">
        <ele>139.51563</ele>
        <time>2020-07-14T09:30:18.000Z</time>
      </trkpt>
      <trkpt lat="48.56457" lon="2.00967">
        <ele>128.78406</ele>
        <time>2020-07-14T09:32:04.000Z</time>
      </trkpt>
      <trkpt lat="48.5662" lon="2.01088">
        <ele>125.89827</ele>
        <time>2020-07-14T09:34:17.000Z</time>
      </trkpt>
      <trkpt lat="48.5662" lon="2.01088">
        <ele>125.89827</ele>
      </trkpt>
      <trkpt lat="48.56712" lon="2.01131">
        <ele>123.53656</ele>
      </trkpt>
      <trkpt lat="48.56717" lon="2.01322">
        <ele>126.89664</ele>
      </trkpt>
      <trkpt lat="48.56717" lon="2.01322">
        <ele>126.89664</ele>
        <time>2020-07-14T09:38:54.000Z</time>
      </trkpt>
      <trkpt lat="48.5671" lon="2.01497">
        <ele>126.71662</ele>
        <time>2020-07-14T09:40:20.000Z</time>
      </trkpt>
      <trkpt lat="48.56687" lon="2.01667">
        <ele>120.36824</ele>
        <time>2020-07-14T09:41:40.000Z</time>
      </trkpt>
      <trkpt lat="48.56635" lon="2.01878">
        <ele>115.97981</ele>
        <time>2020-07-14T09:43:24.000Z</time>
      </trkpt>
      <trkpt lat="48.56586" lon="2.02029">
        <ele>114.76715</ele>
        <time>2020-07-14T09:44:43.000Z</time>
      </trkpt>
      <trkpt lat="48.56561" lon="2.02136">
        <ele>112.59301</ele>
        <time>2020-07-14T09:45:37.000Z</time>
      </trkpt>
      <trkpt lat="48.56561" lon="2.02192">
        <ele>112.06208</ele>
        <time>2020-07-14T09:46:05.000Z</time>
      </trkpt>
      <trkpt lat="48.56561" lon="2.02192">
        <ele>112.06208</ele>
        <time>2020-07-14T09:46:05.000Z</time>
      </trkpt>
      <trkpt lat="48.56618" lon="2.02332">
        <ele>106.96061</ele>
        <time>2020-07-14T09:47:21.000Z</time>
      </trkpt>
      <trkpt lat="48.56636" lon="2.02484">
        <ele>104.43719</ele>
        <time>2020-07-14T09:48:31.000Z</time>
      </trkpt>
      <trkpt lat="48.56636" lon="2.02484">
        <ele>104.43719</ele>
      </trkpt>
      <trkpt lat="48.56791" lon="2.02632">
        <ele>96.71125</ele>
      </trkpt>
      <trkpt lat="48.56846" lon="2.02665">
        <ele>95.88586</ele>
      </trkpt>
      <trkpt lat="48.56906" lon="2.02779">
        <ele>91.84631</ele>
      </trkpt>
      <trkpt lat="48.57017" lon="2.02817">
        <ele>86.48396</ele>
      </trkpt>
      <trkpt lat="48.57121" lon="2.02887">
        <ele>81.21249</ele>
      </trkpt>
      <trkpt lat="48.57246" lon="2.02912">
        <ele>79.25414</ele>
      </trkpt>
      <trkpt lat="48.57363" lon="2.02989">
        <ele>80.82226</ele>
      </trkpt>
      <trkpt lat="48.57345" lon="2.03027">
        <ele>81.96337</ele>
      </trkpt>
      <trkpt lat="48.57345" lon="2.03027">
        <ele>81.96337</ele>
      </trkpt>
      <trkpt lat="48.57236" lon="2.03208">
        <ele>86.50027</ele>
      </trkpt>
      <trkpt lat="48.57095" lon="2.03327">
        <ele>86.33028</ele>
      </trkpt>
      <trkpt lat="48.57008" lon="2.03384">
        <ele>83.97645</ele>
      </trkpt>
      <trkpt lat="48.56893" lon="2.03462">
        <ele>79.97053</ele>
      </trkpt>
      <trkpt lat="48.56871" lon="2.03545">
        <ele>81.94444</ele>
      </trkpt>
      <trkpt lat="48.56808" lon="2.0362">
        <ele>79.12516</ele>
      </trkpt>
      <trkpt lat="48.56826" lon="2.03706">
        <ele>81.37784</ele>
      </trkpt>
      <trkpt lat="48.56826" lon="2.03706">
        <ele>81.37784</ele>
        <time>2020-07-14T10:12:54.000Z</time>
      </trkpt>
      <trkpt lat="48.56806" lon="2.03771">
        <ele>80.01634</ele>
        <time>2020-07-14T10:13:14.000Z</time>
      </trkpt>
      <trkpt lat="48.56802" lon="2.03958">
        <ele>78.54156</ele>
        <time>2020-07-14T10:14:52.000Z</time>
      </trkpt>
      <trkpt lat="48.56793" lon="2.04061">
        <ele>78.26854</ele>
        <time>2020-07-14T10:16:00.000Z</time>
      </trkpt>
      <trkpt lat="48.56812" lon="2.04343">
        <ele>78.98442</ele>
        <time>2020-07-14T10:18:14.000Z</time>
      </trkpt>
      <trkpt lat="48.56737" lon="2.04617">
        <ele>78.63379</ele>
        <time>2020-07-14T10:20:36.000Z</time>
      </trkpt>
      <trkpt lat="48.56733" lon="2.04704">
        <ele>79.30018</ele>
        <time>2020-07-14T10:21:17.000Z</time>
      </trkpt>
      <trkpt lat="48.56702" lon="2.04839">
        <ele>78.18899</ele>
        <time>2020-07-14T10:22:49.000Z</time>
      </trkpt>
      <trkpt lat="48.56702" lon="2.04839">
        <ele>78.18899</ele>
        <time>2020-07-14T10:22:49.000Z</time>
      </trkpt>
      <trkpt lat="48.56689" lon="2.04924">
        <ele>77.69734</ele>
        <time>2020-07-14T10:23:32.000Z</time>
      </trkpt>
      <trkpt lat="48.56691" lon="2.05044">
        <ele>76.19977</ele>
        <time>2020-07-14T10:24:29.000Z</time>
      </trkpt>
      <trkpt lat="48.56723" lon="2.05171">
        <ele>75.24539</ele>
        <time>2020-07-14T10:25:35.000Z</time>
      </trkpt>
      <trkpt lat="48.56734" lon="2.05313">
        <ele>74.42214</ele>
        <time>2020-07-14T10:27:37.000Z</time>
      </trkpt>
      <trkpt lat="48.56784" lon="2.05507">
        <ele>76.43553</ele>
        <time>2020-07-14T10:29:18.000Z</time>
      </trkpt>
      <trkpt lat="48.56806" lon="2.05645">
        <ele>77.0841</ele>
        <time>2020-07-14T10:30:24.000Z</time>
      </trkpt>
      <trkpt lat="48.56803" lon="2.05759">
        <ele>77.05889</ele>
        <time>2020-07-14T10:31:18.000Z</time>
      </trkpt>
      <trkpt lat="48.56784" lon="2.05941">
        <ele>74.64418</ele>
        <time>2020-07-14T10:32:40.000Z</time>
      </trkpt>
      <trkpt lat="48.56791" lon="2.06069">
        <ele>74.64275</ele>
        <time>2020-07-14T10:33:39.000Z</time>
      </trkpt>
      <trkpt lat="48.56791" lon="2.06069">
        <ele>74.64275</ele>
      </trkpt>
      <trkpt lat="48.56791" lon="2.06086">
        <ele>74.21295</ele>
      </trkpt>
      <trkpt lat="48.56737" lon="2.06087">
        <ele>73.26937</ele>
      </trkpt>
      <trkpt lat="48.56662" lon="2.06051">
        <ele>72.04851</ele>
      </trkpt>
      <trkpt lat="48.56585" lon="2.05983">
        <ele>73.75631</ele>
      </trkpt>
      <trkpt lat="48.56586" lon="2.05985">
        <ele>73.73497</ele>
      </trkpt>
      <trkpt lat="48.56586" lon="2.05985">
        <ele>73.73497</ele>
      </trkpt>
      <trkpt lat="48.56556" lon="2.0604">
        <ele>73.9031</ele>
      </trkpt>
      <trkpt lat="48.56546" lon="2.06156">
        <ele>75.95904</ele>
      </trkpt>
      <trkpt lat="48.56503" lon="2.06167">
        <ele>77.89949</ele>
      </trkpt>
      <trkpt lat="48.56431" lon="2.06154">
        <ele>82.07409</ele>
      </trkpt>
      <trkpt lat="48.56308" lon="2.06155">
        <ele>93.69667</ele>
      </trkpt>
      <trkpt lat="48.56308" lon="2.06155">
        <ele>93.69667</ele>
      </trkpt>
      <trkpt lat="48.56278" lon="2.06131">
        <ele>96.74069</ele>
      </trkpt>
      <trkpt lat="48.56173" lon="2.062">
        <ele>115.76135</ele>
      </trkpt>
      <trkpt lat="48.5609" lon="2.06247">
        <ele>125.76626</ele>
      </trkpt>
      <trkpt lat="48.5596" lon="2.06419">
        <ele>152.8095</ele>
      </trkpt>
      <trkpt lat="48.55823" lon="2.06552">
        <ele>157.2</ele>
      </trkpt>
      <trkpt lat="48.55679" lon="2.06753">
        <ele>155.10551</ele>
      </trkpt>
      <trkpt lat="48.55582" lon="2.06899">
        <ele>155.41681</ele>
      </trkpt>
      <trkpt lat="48.555" lon="2.06892">
        <ele>154</ele>
      </trkpt>
      <trkpt lat="48.555" lon="2.06892">
        <ele>154</ele>
      </trkpt>
      <trkpt lat="48.55485" lon="2.06892">
        <ele>153.9</ele>
      </trkpt>
      <trkpt lat="48.55479" lon="2.06924">
        <ele>154.1</ele>
      </trkpt>
      <trkpt lat="48.55471" lon="2.06967">
        <ele>154.2</ele>
      </trkpt>
      <trkpt lat="48.55469" lon="2.06984">
        <ele>154.2</ele>
      </trkpt>
      <trkpt lat="48.5547" lon="2.06993">
        <ele>154.2</ele>
      </trkpt>
      <trkpt lat="48.55475" lon="2.07011">
        <ele>154.1</ele>
      </trkpt>
      <trkpt lat="48.55482" lon="2.07027">
        <ele>154.3</ele>
      </trkpt>
      <trkpt lat="48.55493" lon="2.07053">
        <ele>154.7</ele>
      </trkpt>
      <trkpt lat="48.55498" lon="2.07095">
        <ele>155</ele>
      </trkpt>
      <trkpt lat="48.55494" lon="2.07123">
        <ele>155.2</ele>
      </trkpt>
      <trkpt lat="48.55486" lon="2.07147">
        <ele>155.1</ele>
      </trkpt>
      <trkpt lat="48.55463" lon="2.07201">
        <ele>154.8</ele>
      </trkpt>
      <trkpt lat="48.55445" lon="2.07246">
        <ele>154.6</ele>
      </trkpt>
      <trkpt lat="48.55426" lon="2.07291">
        <ele>154.3</ele>
      </trkpt>
      <trkpt lat="48.55408" lon="2.07336">
        <ele>154</ele>
      </trkpt>
      <trkpt lat="48.55391" lon="2.07397">
        <ele>153.8</ele>
      </trkpt>
      <trkpt lat="48.55374" lon="2.07459">
        <ele>153.7</ele>
      </trkpt>
      <trkpt lat="48.55357" lon="2.07521">
        <ele>153.5</ele>
      </trkpt>
      <trkpt lat="48.5534" lon="2.07583">
        <ele>153.4</ele>
      </trkpt>
      <trkpt lat="48.55318" lon="2.07637">
        <ele>152.7</ele>
      </trkpt>
      <trkpt lat="48.55296" lon="2.07691">
        <ele>152.3</ele>
      </trkpt>
      <trkpt lat="48.55274" lon="2.07745">
        <ele>151.9</ele>
      </trkpt>
      <trkpt lat="48.55252" lon="2.07799">
        <ele>151.7</ele>
      </trkpt>
      <trkpt lat="48.55231" lon="2.07854">
        <ele>151.2</ele>
      </trkpt>
      <trkpt lat="48.55221" lon="2.07907">
        <ele>151.3</ele>
      </trkpt>
      <trkpt lat="48.55212" lon="2.07959">
        <ele>151.1</ele>
      </trkpt>
      <trkpt lat="48.55203" lon="2.08012">
        <ele>151.2</ele>
      </trkpt>
      <trkpt lat="48.55194" lon="2.08065">
        <ele>150.8</ele>
      </trkpt>
      <trkpt lat="48.55185" lon="2.08118">
        <ele>150.7</ele>
      </trkpt>
      <trkpt lat="48.55185" lon="2.08127">
        <ele>150.8</ele>
      </trkpt>
      <trkpt lat="48.55185" lon="2.08127">
        <ele>150.8</ele>
      </trkpt>
      <trkpt lat="48.55185" lon="2.08118">
        <ele>150.7</ele>
      </trkpt>
      <trkpt lat="48.55146" lon="2.08119">
        <ele>149.2</ele>
      </trkpt>
      <trkpt lat="48.55108" lon="2.0812">
        <ele>147.9</ele>
      </trkpt>
      <trkpt lat="48.55069" lon="2.08122">
        <ele>147.4</ele>
      </trkpt>
      <trkpt lat="48.55031" lon="2.08123">
        <ele>147.7</ele>
      </trkpt>
      <trkpt lat="48.54992" lon="2.08124">
        <ele>148</ele>
      </trkpt>
      <trkpt lat="48.54955" lon="2.08125">
        <ele>148.5</ele>
      </trkpt>
      <trkpt lat="48.54918" lon="2.08126">
        <ele>149</ele>
      </trkpt>
      <trkpt lat="48.54882" lon="2.08128">
        <ele>149.3</ele>
      </trkpt>
      <trkpt lat="48.54845" lon="2.08129">
        <ele>149.6</ele>
      </trkpt>
      <trkpt lat="48.54808" lon="2.0813">
        <ele>149.9</ele>
      </trkpt>
      <trkpt lat="48.54768" lon="2.08131">
        <ele>150.3</ele>
      </trkpt>
      <trkpt lat="48.54727" lon="2.08131">
        <ele>151.1</ele>
      </trkpt>
      <trkpt lat="48.54687" lon="2.08131">
        <ele>152</ele>
      </trkpt>
      <trkpt lat="48.54647" lon="2.08132">
        <ele>153.1</ele>
      </trkpt>
      <trkpt lat="48.54606" lon="2.08132">
        <ele>153.9</ele>
      </trkpt>
      <trkpt lat="48.54566" lon="2.08133">
        <ele>153.9</ele>
      </trkpt>
      <trkpt lat="48.54525" lon="2.08133">
        <ele>154.8</ele>
      </trkpt>
      <trkpt lat="48.54497" lon="2.08134">
        <ele>155.1</ele>
      </trkpt>
      <trkpt lat="48.54497" lon="2.08134">
        <ele>155.1</ele>
      </trkpt>
      <trkpt lat="48.54485" lon="2.08134">
        <ele>155.2</ele>
      </trkpt>
      <trkpt lat="48.54463" lon="2.08123">
        <ele>155.8</ele>
      </trkpt>
      <trkpt lat="48.54441" lon="2.08113">
        <ele>156.2</ele>
      </trkpt>
      <trkpt lat="48.54408" lon="2.08108">
        <ele>156.1</ele>
      </trkpt>
      <trkpt lat="48.54388" lon="2.08097">
        <ele>155.5</ele>
      </trkpt>
      <trkpt lat="48.54379" lon="2.08089">
        <ele>155.1</ele>
      </trkpt>
      <trkpt lat="48.5436" lon="2.08066">
        <ele>153.3</ele>
      </trkpt>
      <trkpt lat="48.5434" lon="2.08042">
        <ele>149.8</ele>
      </trkpt>
      <trkpt lat="48.54317" lon="2.08015">
        <ele>143.5</ele>
      </trkpt>
      <trkpt lat="48.54293" lon="2.07988">
        <ele>138</ele>
      </trkpt>
      <trkpt lat="48.5429" lon="2.07984">
        <ele>137.6</ele>
      </trkpt>
      <trkpt lat="48.54266" lon="2.07985">
        <ele>132.4</ele>
      </trkpt>
      <trkpt lat="48.54257" lon="2.07984">
        <ele>130.7</ele>
      </trkpt>
      <trkpt lat="48.54244" lon="2.07975">
        <ele>128.3</ele>
      </trkpt>
      <trkpt lat="48.54236" lon="2.0797">
        <ele>127.1</ele>
      </trkpt>
      <trkpt lat="48.54225" lon="2.07959">
        <ele>125.4</ele>
      </trkpt>
      <trkpt lat="48.54218" lon="2.0795">
        <ele>124.6</ele>
      </trkpt>
      <trkpt lat="48.54192" lon="2.07902">
        <ele>120.4</ele>
      </trkpt>
      <trkpt lat="48.54185" lon="2.07891">
        <ele>118.8</ele>
      </trkpt>
      <trkpt lat="48.54177" lon="2.07884">
        <ele>116.4</ele>
      </trkpt>
      <trkpt lat="48.54169" lon="2.07878">
        <ele>114.1</ele>
      </trkpt>
      <trkpt lat="48.54165" lon="2.07878">
        <ele>113.5</ele>
      </trkpt>
      <trkpt lat="48.54125" lon="2.07897">
        <ele>108.6</ele>
      </trkpt>
      <trkpt lat="48.54105" lon="2.07906">
        <ele>105.6</ele>
      </trkpt>
      <trkpt lat="48.54079" lon="2.07912">
        <ele>102.2</ele>
      </trkpt>
      <trkpt lat="48.54071" lon="2.07912">
        <ele>101.4</ele>
      </trkpt>
      <trkpt lat="48.54068" lon="2.0791">
        <ele>101.2</ele>
      </trkpt>
      <trkpt lat="48.54032" lon="2.07883">
        <ele>99.5</ele>
      </trkpt>
      <trkpt lat="48.54007" lon="2.07879">
        <ele>95</ele>
      </trkpt>
      <trkpt lat="48.54004" lon="2.07869">
        <ele>95.5</ele>
      </trkpt>
      <trkpt lat="48.54004" lon="2.07869">
        <ele>95.5</ele>
      </trkpt>
      <trkpt lat="48.54007" lon="2.07879">
        <ele>95</ele>
      </trkpt>
      <trkpt lat="48.53993" lon="2.07887">
        <ele>91.8</ele>
      </trkpt>
      <trkpt lat="48.53983" lon="2.07895">
        <ele>89.7</ele>
      </trkpt>
      <trkpt lat="48.53958" lon="2.07919">
        <ele>84.8</ele>
      </trkpt>
      <trkpt lat="48.53934" lon="2.07943">
        <ele>80.8</ele>
      </trkpt>
      <trkpt lat="48.53933" lon="2.07941">
        <ele>80.8</ele>
      </trkpt>
      <trkpt lat="48.53932" lon="2.0794">
        <ele>80.8</ele>
      </trkpt>
      <trkpt lat="48.53931" lon="2.07939">
        <ele>80.7</ele>
      </trkpt>
      <trkpt lat="48.53929" lon="2.07939">
        <ele>80.7</ele>
      </trkpt>
      <trkpt lat="48.53928" lon="2.07939">
        <ele>80.6</ele>
      </trkpt>
      <trkpt lat="48.53927" lon="2.07939">
        <ele>80.6</ele>
      </trkpt>
      <trkpt lat="48.53925" lon="2.0794">
        <ele>80.5</ele>
      </trkpt>
      <trkpt lat="48.53924" lon="2.07942">
        <ele>80.4</ele>
      </trkpt>
      <trkpt lat="48.53923" lon="2.07945">
        <ele>80.4</ele>
      </trkpt>
      <trkpt lat="48.53923" lon="2.07948">
        <ele>80.3</ele>
      </trkpt>
      <trkpt lat="48.53923" lon="2.07951">
        <ele>80.3</ele>
      </trkpt>
      <trkpt lat="48.53918" lon="2.07956">
        <ele>80.2</ele>
      </trkpt>
      <trkpt lat="48.53898" lon="2.07971">
        <ele>80.5</ele>
      </trkpt>
      <trkpt lat="48.53893" lon="2.07975">
        <ele>80.4</ele>
      </trkpt>
      <trkpt lat="48.53885" lon="2.07981">
        <ele>80.2</ele>
      </trkpt>
      <trkpt lat="48.53882" lon="2.07982">
        <ele>80.1</ele>
      </trkpt>
      <trkpt lat="48.53875" lon="2.07988">
        <ele>79.8</ele>
      </trkpt>
      <trkpt lat="48.53854" lon="2.08003">
        <ele>79.5</ele>
      </trkpt>
      <trkpt lat="48.53832" lon="2.08018">
        <ele>79.7</ele>
      </trkpt>
      <trkpt lat="48.53805" lon="2.08038">
        <ele>79.9</ele>
      </trkpt>
      <trkpt lat="48.53778" lon="2.08059">
        <ele>80.2</ele>
      </trkpt>
      <trkpt lat="48.53751" lon="2.08079">
        <ele>80.5</ele>
      </trkpt>
      <trkpt lat="48.53728" lon="2.08089">
        <ele>80.6</ele>
      </trkpt>
      <trkpt lat="48.53698" lon="2.08102">
        <ele>81.2</ele>
      </trkpt>
      <trkpt lat="48.53698" lon="2.08102">
        <ele>81.2</ele>
      </trkpt>
      <trkpt lat="48.53702" lon="2.08118">
        <ele>81.3</ele>
      </trkpt>
      <trkpt lat="48.53706" lon="2.08135">
        <ele>81.8</ele>
      </trkpt>
      <trkpt lat="48.53714" lon="2.08152">
        <ele>82.5</ele>
      </trkpt>
      <trkpt lat="48.53705" lon="2.08172">
        <ele>85.1</ele>
      </trkpt>
      <trkpt lat="48.53702" lon="2.08184">
        <ele>86.5</ele>
      </trkpt>
      <trkpt lat="48.53693" lon="2.08223">
        <ele>89.8</ele>
      </trkpt>
      <trkpt lat="48.53684" lon="2.08261">
        <ele>93.4</ele>
      </trkpt>
      <trkpt lat="48.53669" lon="2.08317">
        <ele>99.5</ele>
      </trkpt>
      <trkpt lat="48.53654" lon="2.08373">
        <ele>105.5</ele>
      </trkpt>
      <trkpt lat="48.53656" lon="2.08381">
        <ele>105.7</ele>
      </trkpt>
      <trkpt lat="48.53649" lon="2.08402">
        <ele>107.6</ele>
      </trkpt>
      <trkpt lat="48.53648" lon="2.08409">
        <ele>108</ele>
      </trkpt>
      <trkpt lat="48.53622" lon="2.08442">
        <ele>113.1</ele>
      </trkpt>
      <trkpt lat="48.53622" lon="2.08456">
        <ele>113.6</ele>
      </trkpt>
      <trkpt lat="48.53623" lon="2.08475">
        <ele>113.8</ele>
      </trkpt>
      <trkpt lat="48.53619" lon="2.08478">
        <ele>114.3</ele>
      </trkpt>
      <trkpt lat="48.53617" lon="2.08481">
        <ele>114.5</ele>
      </trkpt>
      <trkpt lat="48.53615" lon="2.08485">
        <ele>114.7</ele>
      </trkpt>
      <trkpt lat="48.53611" lon="2.08486">
        <ele>115</ele>
      </trkpt>
      <trkpt lat="48.53603" lon="2.08499">
        <ele>115.2</ele>
      </trkpt>
      <trkpt lat="48.53599" lon="2.08501">
        <ele>115.2</ele>
      </trkpt>
      <trkpt lat="48.53593" lon="2.08503">
        <ele>115.3</ele>
      </trkpt>
      <trkpt lat="48.53581" lon="2.08508">
        <ele>115.1</ele>
      </trkpt>
      <trkpt lat="48.5357" lon="2.08508">
        <ele>114.7</ele>
      </trkpt>
      <trkpt lat="48.53561" lon="2.08511">
        <ele>114.3</ele>
      </trkpt>
      <trkpt lat="48.53556" lon="2.08518">
        <ele>114.4</ele>
      </trkpt>
      <trkpt lat="48.5355" lon="2.08523">
        <ele>114.6</ele>
      </trkpt>
      <trkpt lat="48.53548" lon="2.08526">
        <ele>114.7</ele>
      </trkpt>
      <trkpt lat="48.53548" lon="2.08526">
        <ele>114.7</ele>
      </trkpt>
      <trkpt lat="48.53537" lon="2.08543">
        <ele>115.2</ele>
      </trkpt>
      <trkpt lat="48.53527" lon="2.0854">
        <ele>115.6</ele>
      </trkpt>
      <trkpt lat="48.53524" lon="2.08551">
        <ele>115.3</ele>
      </trkpt>
      <trkpt lat="48.5352" lon="2.08561">
        <ele>114.7</ele>
      </trkpt>
      <trkpt lat="48.53483" lon="2.08595">
        <ele>112.1</ele>
      </trkpt>
      <trkpt lat="48.53468" lon="2.08616">
        <ele>110.8</ele>
      </trkpt>
      <trkpt lat="48.53451" lon="2.08649">
        <ele>109.9</ele>
      </trkpt>
      <trkpt lat="48.53434" lon="2.08682">
        <ele>109.5</ele>
      </trkpt>
      <trkpt lat="48.53407" lon="2.08736">
        <ele>109</ele>
      </trkpt>
      <trkpt lat="48.53395" lon="2.08768">
        <ele>107.6</ele>
      </trkpt>
      <trkpt lat="48.53384" lon="2.08801">
        <ele>106.3</ele>
      </trkpt>
      <trkpt lat="48.53369" lon="2.0884">
        <ele>105.1</ele>
      </trkpt>
      <trkpt lat="48.53355" lon="2.08865">
        <ele>105.4</ele>
      </trkpt>
      <trkpt lat="48.53349" lon="2.08872">
        <ele>105.6</ele>
      </trkpt>
      <trkpt lat="48.53345" lon="2.08877">
        <ele>105.8</ele>
      </trkpt>
      <trkpt lat="48.53345" lon="2.08877">
        <ele>105.8</ele>
      </trkpt>
      <trkpt lat="48.53339" lon="2.08883">
        <ele>106.2</ele>
      </trkpt>
      <trkpt lat="48.53333" lon="2.08894">
        <ele>106.9</ele>
      </trkpt>
      <trkpt lat="48.53325" lon="2.08908">
        <ele>107.5</ele>
      </trkpt>
      <trkpt lat="48.53308" lon="2.08941">
        <ele>108.7</ele>
      </trkpt>
      <trkpt lat="48.53303" lon="2.08955">
        <ele>109.5</ele>
      </trkpt>
      <trkpt lat="48.53299" lon="2.08962">
        <ele>109.9</ele>
      </trkpt>
      <trkpt lat="48.53279" lon="2.08982">
        <ele>111.3</ele>
      </trkpt>
      <trkpt lat="48.53265" lon="2.09001">
        <ele>113.2</ele>
      </trkpt>
      <trkpt lat="48.53256" lon="2.0902">
        <ele>115.5</ele>
      </trkpt>
      <trkpt lat="48.53246" lon="2.09049">
        <ele>119.1</ele>
      </trkpt>
      <trkpt lat="48.53231" lon="2.09093">
        <ele>124.9</ele>
      </trkpt>
      <trkpt lat="48.53218" lon="2.09146">
        <ele>132.4</ele>
      </trkpt>
      <trkpt lat="48.53212" lon="2.0918">
        <ele>137</ele>
      </trkpt>
      <trkpt lat="48.53207" lon="2.09214">
        <ele>141.2</ele>
      </trkpt>
      <trkpt lat="48.532" lon="2.09261">
        <ele>144.9</ele>
      </trkpt>
      <trkpt lat="48.53194" lon="2.09308">
        <ele>147</ele>
      </trkpt>
      <trkpt lat="48.53188" lon="2.09338">
        <ele>147.8</ele>
      </trkpt>
      <trkpt lat="48.53188" lon="2.09338">
        <ele>147.8</ele>
      </trkpt>
      <trkpt lat="48.53188" lon="2.09339">
        <ele>147.8</ele>
      </trkpt>
      <trkpt lat="48.53187" lon="2.09348">
        <ele>147.9</ele>
      </trkpt>
      <trkpt lat="48.53183" lon="2.09343">
        <ele>147.8</ele>
      </trkpt>
      <trkpt lat="48.5317" lon="2.09374">
        <ele>148.3</ele>
      </trkpt>
      <trkpt lat="48.53161" lon="2.09397">
        <ele>148.5</ele>
      </trkpt>
      <trkpt lat="48.53146" lon="2.09432">
        <ele>148.9</ele>
      </trkpt>
      <trkpt lat="48.53127" lon="2.09463">
        <ele>149.7</ele>
      </trkpt>
      <trkpt lat="48.53113" lon="2.09492">
        <ele>150.1</ele>
      </trkpt>
      <trkpt lat="48.53099" lon="2.0952">
        <ele>150.5</ele>
      </trkpt>
      <trkpt lat="48.53085" lon="2.09553">
        <ele>150.8</ele>
      </trkpt>
      <trkpt lat="48.53076" lon="2.09574">
        <ele>151.1</ele>
      </trkpt>
      <trkpt lat="48.53063" lon="2.09611">
        <ele>151.5</ele>
      </trkpt>
      <trkpt lat="48.53052" lon="2.09629">
        <ele>151.9</ele>
      </trkpt>
      <trkpt lat="48.53051" lon="2.0963">
        <ele>151.9</ele>
      </trkpt>
      <trkpt lat="48.53038" lon="2.09648">
        <ele>152</ele>
      </trkpt>
      <trkpt lat="48.53033" lon="2.09658">
        <ele>152</ele>
      </trkpt>
      <trkpt lat="48.53033" lon="2.09658">
        <ele>152</ele>
      </trkpt>
      <trkpt lat="48.53028" lon="2.09669">
        <ele>152.1</ele>
      </trkpt>
      <trkpt lat="48.53028" lon="2.09672">
        <ele>152.1</ele>
      </trkpt>
      <trkpt lat="48.53025" lon="2.09704">
        <ele>152.3</ele>
      </trkpt>
      <trkpt lat="48.53018" lon="2.0975">
        <ele>152.6</ele>
      </trkpt>
      <trkpt lat="48.53014" lon="2.09774">
        <ele>152.8</ele>
      </trkpt>
      <trkpt lat="48.53014" lon="2.09777">
        <ele>152.8</ele>
      </trkpt>
      <trkpt lat="48.5301" lon="2.09804">
        <ele>153.1</ele>
      </trkpt>
      <trkpt lat="48.53005" lon="2.09825">
        <ele>153.2</ele>
      </trkpt>
      <trkpt lat="48.52997" lon="2.09854">
        <ele>153.2</ele>
      </trkpt>
      <trkpt lat="48.5299" lon="2.09878">
        <ele>153.6</ele>
      </trkpt>
      <trkpt lat="48.52978" lon="2.09919">
        <ele>154.4</ele>
      </trkpt>
      <trkpt lat="48.52965" lon="2.0996">
        <ele>155.1</ele>
      </trkpt>
      <trkpt lat="48.52949" lon="2.10013">
        <ele>155.6</ele>
      </trkpt>
      <trkpt lat="48.52941" lon="2.10036">
        <ele>155.7</ele>
      </trkpt>
      <trkpt lat="48.5293" lon="2.10065">
        <ele>156</ele>
      </trkpt>
      <trkpt lat="48.52918" lon="2.1009">
        <ele>156.2</ele>
      </trkpt>
      <trkpt lat="48.52906" lon="2.10111">
        <ele>156.4</ele>
      </trkpt>
      <trkpt lat="48.52885" lon="2.10144">
        <ele>156.6</ele>
      </trkpt>
      <trkpt lat="48.52864" lon="2.10177">
        <ele>156.7</ele>
      </trkpt>
      <trkpt lat="48.5285" lon="2.10199">
        <ele>157</ele>
      </trkpt>
      <trkpt lat="48.52848" lon="2.10202">
        <ele>157</ele>
      </trkpt>
      <trkpt lat="48.52849" lon="2.10209">
        <ele>157</ele>
      </trkpt>
      <trkpt lat="48.52849" lon="2.10209">
        <ele>157</ele>
      </trkpt>
      <trkpt lat="48.52851" lon="2.10219">
        <ele>157</ele>
      </trkpt>
      <trkpt lat="48.52862" lon="2.10283">
        <ele>157.1</ele>
      </trkpt>
      <trkpt lat="48.52874" lon="2.10346">
        <ele>157.1</ele>
      </trkpt>
      <trkpt lat="48.52877" lon="2.10388">
        <ele>157.1</ele>
      </trkpt>
      <trkpt lat="48.52879" lon="2.10439">
        <ele>156.4</ele>
      </trkpt>
      <trkpt lat="48.52881" lon="2.10488">
        <ele>155.7</ele>
      </trkpt>
      <trkpt lat="48.52883" lon="2.10537">
        <ele>155.1</ele>
      </trkpt>
      <trkpt lat="48.52884" lon="2.10586">
        <ele>154.5</ele>
      </trkpt>
      <trkpt lat="48.52884" lon="2.10631">
        <ele>154.1</ele>
      </trkpt>
      <trkpt lat="48.52884" lon="2.10666">
        <ele>154.1</ele>
      </trkpt>
      <trkpt lat="48.52882" lon="2.10702">
        <ele>153.8</ele>
      </trkpt>
      <trkpt lat="48.52878" lon="2.10739">
        <ele>153.4</ele>
      </trkpt>
      <trkpt lat="48.52873" lon="2.10785">
        <ele>153.2</ele>
      </trkpt>
      <trkpt lat="48.52868" lon="2.10832">
        <ele>153.4</ele>
      </trkpt>
      <trkpt lat="48.52862" lon="2.10895">
        <ele>153.5</ele>
      </trkpt>
      <trkpt lat="48.5286" lon="2.10931">
        <ele>153.9</ele>
      </trkpt>
      <trkpt lat="48.5286" lon="2.10984">
        <ele>154.2</ele>
      </trkpt>
      <trkpt lat="48.5286" lon="2.11038">
        <ele>154.5</ele>
      </trkpt>
      <trkpt lat="48.52861" lon="2.11098">
        <ele>154.4</ele>
      </trkpt>
      <trkpt lat="48.52862" lon="2.11159">
        <ele>154.2</ele>
      </trkpt>
      <trkpt lat="48.52862" lon="2.11176">
        <ele>154.2</ele>
      </trkpt>
      <trkpt lat="48.52861" lon="2.11211">
        <ele>154</ele>
      </trkpt>
      <trkpt lat="48.5286" lon="2.11247">
        <ele>153.7</ele>
      </trkpt>
      <trkpt lat="48.52857" lon="2.11313">
        <ele>153.1</ele>
      </trkpt>
      <trkpt lat="48.52856" lon="2.11346">
        <ele>152.6</ele>
      </trkpt>
      <trkpt lat="48.52856" lon="2.11367">
        <ele>152.3</ele>
      </trkpt>
      <trkpt lat="48.52858" lon="2.11386">
        <ele>152</ele>
      </trkpt>
      <trkpt lat="48.5286" lon="2.11405">
        <ele>151.7</ele>
      </trkpt>
      <trkpt lat="48.52869" lon="2.11458">
        <ele>150.8</ele>
      </trkpt>
      <trkpt lat="48.52876" lon="2.115">
        <ele>150.1</ele>
      </trkpt>
      <trkpt lat="48.52883" lon="2.11543">
        <ele>149.4</ele>
      </trkpt>
      <trkpt lat="48.52887" lon="2.11568">
        <ele>149.2</ele>
      </trkpt>
      <trkpt lat="48.52888" lon="2.1159">
        <ele>148.9</ele>
      </trkpt>
      <trkpt lat="48.52887" lon="2.11628">
        <ele>148.6</ele>
      </trkpt>
      <trkpt lat="48.5289" lon="2.1167">
        <ele>148.1</ele>
      </trkpt>
      <trkpt lat="48.52894" lon="2.11701">
        <ele>147.9</ele>
      </trkpt>
      <trkpt lat="48.52912" lon="2.1176">
        <ele>147</ele>
      </trkpt>
      <trkpt lat="48.52929" lon="2.11819">
        <ele>146.2</ele>
      </trkpt>
      <trkpt lat="48.52946" lon="2.11878">
        <ele>145.3</ele>
      </trkpt>
      <trkpt lat="48.52964" lon="2.11937">
        <ele>144.4</ele>
      </trkpt>
      <trkpt lat="48.52981" lon="2.11996">
        <ele>143.6</ele>
      </trkpt>
      <trkpt lat="48.52998" lon="2.12055">
        <ele>142.7</ele>
      </trkpt>
      <trkpt lat="48.53016" lon="2.12114">
        <ele>141.9</ele>
      </trkpt>
      <trkpt lat="48.53024" lon="2.12131">
        <ele>142</ele>
      </trkpt>
      <trkpt lat="48.53025" lon="2.12133">
        <ele>142</ele>
      </trkpt>
      <trkpt lat="48.53025" lon="2.12133">
        <ele>142</ele>
      </trkpt>
      <trkpt lat="48.53033" lon="2.12147">
        <ele>142.1</ele>
      </trkpt>
      <trkpt lat="48.53053" lon="2.12177">
        <ele>143.1</ele>
      </trkpt>
      <trkpt lat="48.53083" lon="2.12215">
        <ele>144.7</ele>
      </trkpt>
      <trkpt lat="48.53107" lon="2.1224">
        <ele>146.4</ele>
      </trkpt>
      <trkpt lat="48.53138" lon="2.12276">
        <ele>149</ele>
      </trkpt>
      <trkpt lat="48.5315" lon="2.12288">
        <ele>149.7</ele>
      </trkpt>
      <trkpt lat="48.5315" lon="2.12288">
        <ele>149.7</ele>
      </trkpt>
      <trkpt lat="48.53157" lon="2.12295">
        <ele>150.1</ele>
      </trkpt>
      <trkpt lat="48.5317" lon="2.12303">
        <ele>150.9</ele>
      </trkpt>
      <trkpt lat="48.53188" lon="2.12312">
        <ele>151.8</ele>
      </trkpt>
      <trkpt lat="48.53216" lon="2.12331">
        <ele>152.8</ele>
      </trkpt>
      <trkpt lat="48.53244" lon="2.12351">
        <ele>153.3</ele>
      </trkpt>
      <trkpt lat="48.53273" lon="2.12372">
        <ele>153.4</ele>
      </trkpt>
      <trkpt lat="48.53297" lon="2.12408">
        <ele>153.7</ele>
      </trkpt>
      <trkpt lat="48.53322" lon="2.12444">
        <ele>153.9</ele>
      </trkpt>
      <trkpt lat="48.53343" lon="2.12479">
        <ele>153.8</ele>
      </trkpt>
      <trkpt lat="48.53359" lon="2.12506">
        <ele>153.3</ele>
      </trkpt>
      <trkpt lat="48.53359" lon="2.12506">
        <ele>153.3</ele>
      </trkpt>
      <trkpt lat="48.53365" lon="2.12515">
        <ele>153.2</ele>
      </trkpt>
      <trkpt lat="48.53397" lon="2.12561">
        <ele>152</ele>
      </trkpt>
      <trkpt lat="48.53429" lon="2.12608">
        <ele>149.7</ele>
      </trkpt>
      <trkpt lat="48.5346" lon="2.12655">
        <ele>147.9</ele>
      </trkpt>
      <trkpt lat="48.53492" lon="2.12701">
        <ele>146.8</ele>
      </trkpt>
      <trkpt lat="48.53511" lon="2.12731">
        <ele>146.3</ele>
      </trkpt>
      <trkpt lat="48.53529" lon="2.1276">
        <ele>145.8</ele>
      </trkpt>
      <trkpt lat="48.53551" lon="2.12778">
        <ele>145.4</ele>
      </trkpt>
      <trkpt lat="48.53564" lon="2.12782">
        <ele>145.2</ele>
      </trkpt>
      <trkpt lat="48.53576" lon="2.12781">
        <ele>144.9</ele>
      </trkpt>
      <trkpt lat="48.5359" lon="2.12772">
        <ele>144.6</ele>
      </trkpt>
      <trkpt lat="48.5362" lon="2.12756">
        <ele>144.2</ele>
      </trkpt>
      <trkpt lat="48.53625" lon="2.12752">
        <ele>144.1</ele>
      </trkpt>
      <trkpt lat="48.53629" lon="2.12764">
        <ele>144.3</ele>
      </trkpt>
      <trkpt lat="48.53643" lon="2.12807">
        <ele>144.5</ele>
      </trkpt>
      <trkpt lat="48.53657" lon="2.1285">
        <ele>145</ele>
      </trkpt>
      <trkpt lat="48.53676" lon="2.1291">
        <ele>146.1</ele>
      </trkpt>
      <trkpt lat="48.53696" lon="2.1297">
        <ele>147.1</ele>
      </trkpt>
      <trkpt lat="48.53715" lon="2.1303">
        <ele>147.9</ele>
      </trkpt>
      <trkpt lat="48.53734" lon="2.13089">
        <ele>148.2</ele>
      </trkpt>
      <trkpt lat="48.5374" lon="2.13108">
        <ele>148</ele>
      </trkpt>
      <trkpt lat="48.5374" lon="2.13108">
        <ele>148</ele>
      </trkpt>
      <trkpt lat="48.5374" lon="2.13109">
        <ele>148</ele>
      </trkpt>
      <trkpt lat="48.53752" lon="2.13149">
        <ele>148.1</ele>
      </trkpt>
      <trkpt lat="48.53764" lon="2.13188">
        <ele>148</ele>
      </trkpt>
      <trkpt lat="48.53775" lon="2.13228">
        <ele>148</ele>
      </trkpt>
      <trkpt lat="48.53793" lon="2.13216">
        <ele>148</ele>
      </trkpt>
      <trkpt lat="48.53804" lon="2.13207">
        <ele>147.9</ele>
      </trkpt>
      <trkpt lat="48.53814" lon="2.13196">
        <ele>147.9</ele>
      </trkpt>
      <trkpt lat="48.53823" lon="2.13179">
        <ele>147.9</ele>
      </trkpt>
      <trkpt lat="48.53827" lon="2.13161">
        <ele>147.9</ele>
      </trkpt>
      <trkpt lat="48.53832" lon="2.1314">
        <ele>147.9</ele>
      </trkpt>
      <trkpt lat="48.53842" lon="2.13086">
        <ele>147.3</ele>
      </trkpt>
      <trkpt lat="48.53845" lon="2.1308">
        <ele>147.2</ele>
      </trkpt>
      <trkpt lat="48.53848" lon="2.13093">
        <ele>147.5</ele>
      </trkpt>
      <trkpt lat="48.53853" lon="2.13111">
        <ele>147.8</ele>
      </trkpt>
      <trkpt lat="48.53858" lon="2.13126">
        <ele>148.1</ele>
      </trkpt>
      <trkpt lat="48.53862" lon="2.13137">
        <ele>148.3</ele>
      </trkpt>
      <trkpt lat="48.53874" lon="2.13169">
        <ele>148.8</ele>
      </trkpt>
      <trkpt lat="48.53885" lon="2.13201">
        <ele>149.3</ele>
      </trkpt>
      <trkpt lat="48.53898" lon="2.13235">
        <ele>149.5</ele>
      </trkpt>
      <trkpt lat="48.53911" lon="2.13268">
        <ele>149.9</ele>
      </trkpt>
      <trkpt lat="48.53915" lon="2.13284">
        <ele>150.1</ele>
      </trkpt>
      <trkpt lat="48.53918" lon="2.13305">
        <ele>150.5</ele>
      </trkpt>
      <trkpt lat="48.5392" lon="2.13323">
        <ele>150.6</ele>
      </trkpt>
      <trkpt lat="48.53919" lon="2.13344">
        <ele>150.9</ele>
      </trkpt>
      <trkpt lat="48.53923" lon="2.13357">
        <ele>151.2</ele>
      </trkpt>
      <trkpt lat="48.5394" lon="2.13416">
        <ele>151.6</ele>
      </trkpt>
      <trkpt lat="48.53957" lon="2.13475">
        <ele>152.4</ele>
      </trkpt>
      <trkpt lat="48.53974" lon="2.13535">
        <ele>153.2</ele>
      </trkpt>
      <trkpt lat="48.53991" lon="2.13594">
        <ele>153.4</ele>
      </trkpt>
      <trkpt lat="48.54009" lon="2.13654">
        <ele>153.6</ele>
      </trkpt>
      <trkpt lat="48.54026" lon="2.13713">
        <ele>153.5</ele>
      </trkpt>
      <trkpt lat="48.54043" lon="2.13772">
        <ele>153.3</ele>
      </trkpt>
      <trkpt lat="48.5406" lon="2.13832">
        <ele>153.2</ele>
      </trkpt>
      <trkpt lat="48.54064" lon="2.13833">
        <ele>153.2</ele>
      </trkpt>
      <trkpt lat="48.54064" lon="2.13833">
        <ele>153.2</ele>
      </trkpt>
      <trkpt lat="48.5407" lon="2.13835">
        <ele>153.2</ele>
      </trkpt>
      <trkpt lat="48.54091" lon="2.13838">
        <ele>153.2</ele>
      </trkpt>
      <trkpt lat="48.5411" lon="2.13843">
        <ele>153.1</ele>
      </trkpt>
      <trkpt lat="48.54138" lon="2.13855">
        <ele>152.9</ele>
      </trkpt>
      <trkpt lat="48.54158" lon="2.13862">
        <ele>152.8</ele>
      </trkpt>
      <trkpt lat="48.54177" lon="2.13865">
        <ele>152.9</ele>
      </trkpt>
      <trkpt lat="48.54215" lon="2.13861">
        <ele>152.6</ele>
      </trkpt>
      <trkpt lat="48.54246" lon="2.13853">
        <ele>152.2</ele>
      </trkpt>
      <trkpt lat="48.5427" lon="2.13848">
        <ele>151.9</ele>
      </trkpt>
      <trkpt lat="48.54289" lon="2.13837">
        <ele>151.4</ele>
      </trkpt>
      <trkpt lat="48.54327" lon="2.13819">
        <ele>150.9</ele>
      </trkpt>
      <trkpt lat="48.54344" lon="2.13811">
        <ele>150.7</ele>
      </trkpt>
      <trkpt lat="48.54362" lon="2.13802">
        <ele>150.2</ele>
      </trkpt>
      <trkpt lat="48.54373" lon="2.13798">
        <ele>149.6</ele>
      </trkpt>
      <trkpt lat="48.5438" lon="2.13796">
        <ele>149.2</ele>
      </trkpt>
      <trkpt lat="48.54402" lon="2.138">
        <ele>148.2</ele>
      </trkpt>
      <trkpt lat="48.5441" lon="2.138">
        <ele>147.9</ele>
      </trkpt>
      <trkpt lat="48.54412" lon="2.13798">
        <ele>147.8</ele>
      </trkpt>
      <trkpt lat="48.54413" lon="2.13794">
        <ele>147.6</ele>
      </trkpt>
      <trkpt lat="48.54413" lon="2.13794">
        <ele>147.6</ele>
      </trkpt>
      <trkpt lat="48.54415" lon="2.1379">
        <ele>147.4</ele>
      </trkpt>
      <trkpt lat="48.54419" lon="2.13781">
        <ele>146.8</ele>
      </trkpt>
      <trkpt lat="48.54425" lon="2.13748">
        <ele>144.6</ele>
      </trkpt>
      <trkpt lat="48.54442" lon="2.13691">
        <ele>141.1</ele>
      </trkpt>
      <trkpt lat="48.54473" lon="2.13679">
        <ele>135.9</ele>
      </trkpt>
      <trkpt lat="48.545" lon="2.13656">
        <ele>127.7</ele>
      </trkpt>
      <trkpt lat="48.54524" lon="2.13629">
        <ele>121.2</ele>
      </trkpt>
      <trkpt lat="48.54533" lon="2.13606">
        <ele>117.1</ele>
      </trkpt>
      <trkpt lat="48.54542" lon="2.13553">
        <ele>112.6</ele>
      </trkpt>
      <trkpt lat="48.54553" lon="2.1352">
        <ele>110.8</ele>
      </trkpt>
      <trkpt lat="48.5457" lon="2.13486">
        <ele>107</ele>
      </trkpt>
      <trkpt lat="48.54584" lon="2.13451">
        <ele>104.2</ele>
      </trkpt>
      <trkpt lat="48.54597" lon="2.13417">
        <ele>103.9</ele>
      </trkpt>
      <trkpt lat="48.54606" lon="2.13407">
        <ele>104.2</ele>
      </trkpt>
      <trkpt lat="48.54632" lon="2.13388">
        <ele>101.4</ele>
      </trkpt>
      <trkpt lat="48.54657" lon="2.13369">
        <ele>97.8</ele>
      </trkpt>
      <trkpt lat="48.5467" lon="2.13359">
        <ele>95.7</ele>
      </trkpt>
      <trkpt lat="48.54685" lon="2.13342">
        <ele>93.8</ele>
      </trkpt>
      <trkpt lat="48.54702" lon="2.13312">
        <ele>91.5</ele>
      </trkpt>
      <trkpt lat="48.54709" lon="2.13302">
        <ele>90.7</ele>
      </trkpt>
      <trkpt lat="48.54721" lon="2.1329">
        <ele>89.5</ele>
      </trkpt>
      <trkpt lat="48.5473" lon="2.13285">
        <ele>88.8</ele>
      </trkpt>
      <trkpt lat="48.54759" lon="2.13268">
        <ele>86.8</ele>
      </trkpt>
      <trkpt lat="48.54769" lon="2.13257">
        <ele>86</ele>
      </trkpt>
      <trkpt lat="48.5477" lon="2.13258">
        <ele>86</ele>
      </trkpt>
      <trkpt lat="48.5477" lon="2.13258">
        <ele>86</ele>
      </trkpt>
      <trkpt lat="48.54774" lon="2.13275">
        <ele>86.1</ele>
      </trkpt>
      <trkpt lat="48.54798" lon="2.13293">
        <ele>84.2</ele>
      </trkpt>
      <trkpt lat="48.54818" lon="2.13297">
        <ele>82.1</ele>
      </trkpt>
      <trkpt lat="48.54836" lon="2.13302">
        <ele>80.1</ele>
      </trkpt>
      <trkpt lat="48.54841" lon="2.13299">
        <ele>79.7</ele>
      </trkpt>
      <trkpt lat="48.54841" lon="2.13299">
        <ele>79.7</ele>
      </trkpt>
      <trkpt lat="48.54866" lon="2.13284">
        <ele>77.5</ele>
      </trkpt>
      <trkpt lat="48.54896" lon="2.13266">
        <ele>74.8</ele>
      </trkpt>
      <trkpt lat="48.54899" lon="2.13265">
        <ele>74.7</ele>
      </trkpt>
      <trkpt lat="48.5492" lon="2.13253">
        <ele>73.4</ele>
      </trkpt>
      <trkpt lat="48.54942" lon="2.13242">
        <ele>71.7</ele>
      </trkpt>
      <trkpt lat="48.54942" lon="2.13242">
        <ele>71.7</ele>
      </trkpt>
      <trkpt lat="48.54942" lon="2.13242">
        <ele>71.7</ele>
      </trkpt>
      <trkpt lat="48.5494" lon="2.1323">
        <ele>71.5</ele>
      </trkpt>
      <trkpt lat="48.54936" lon="2.13193">
        <ele>71.1</ele>
      </trkpt>
      <trkpt lat="48.54934" lon="2.1317">
        <ele>70.8</ele>
      </trkpt>
      <trkpt lat="48.54934" lon="2.13157">
        <ele>70.6</ele>
      </trkpt>
      <trkpt lat="48.54936" lon="2.13135">
        <ele>70.4</ele>
      </trkpt>
      <trkpt lat="48.54937" lon="2.13119">
        <ele>70.2</ele>
      </trkpt>
      <trkpt lat="48.54937" lon="2.13111">
        <ele>70.2</ele>
      </trkpt>
      <trkpt lat="48.54936" lon="2.13105">
        <ele>70.2</ele>
      </trkpt>
      <trkpt lat="48.54934" lon="2.13088">
        <ele>70.3</ele>
      </trkpt>
      <trkpt lat="48.54933" lon="2.13081">
        <ele>70.3</ele>
      </trkpt>
      <trkpt lat="48.54931" lon="2.13076">
        <ele>70.4</ele>
      </trkpt>
      <trkpt lat="48.54937" lon="2.13056">
        <ele>69.6</ele>
      </trkpt>
      <trkpt lat="48.54946" lon="2.13024">
        <ele>68.6</ele>
      </trkpt>
      <trkpt lat="48.54951" lon="2.13015">
        <ele>68.3</ele>
      </trkpt>
      <trkpt lat="48.54951" lon="2.13015">
        <ele>68.3</ele>
      </trkpt>
      <trkpt lat="48.54953" lon="2.13011">
        <ele>68.2</ele>
      </trkpt>
      <trkpt lat="48.54968" lon="2.12991">
        <ele>67.6</ele>
      </trkpt>
      <trkpt lat="48.5499" lon="2.12967">
        <ele>67.2</ele>
      </trkpt>
      <trkpt lat="48.55011" lon="2.12944">
        <ele>66.9</ele>
      </trkpt>
      <trkpt lat="48.55016" lon="2.12939">
        <ele>66.8</ele>
      </trkpt>
      <trkpt lat="48.55023" lon="2.12934">
        <ele>66.9</ele>
      </trkpt>
      <trkpt lat="48.55032" lon="2.12925">
        <ele>66.9</ele>
      </trkpt>
      <trkpt lat="48.5504" lon="2.12917">
        <ele>66.9</ele>
      </trkpt>
      <trkpt lat="48.55071" lon="2.1289">
        <ele>67.7</ele>
      </trkpt>
      <trkpt lat="48.55102" lon="2.12862">
        <ele>69.3</ele>
      </trkpt>
      <trkpt lat="48.55133" lon="2.12835">
        <ele>72.3</ele>
      </trkpt>
      <trkpt lat="48.55137" lon="2.12824">
        <ele>72.8</ele>
      </trkpt>
      <trkpt lat="48.55138" lon="2.12816">
        <ele>72.9</ele>
      </trkpt>
      <trkpt lat="48.55136" lon="2.12802">
        <ele>73.1</ele>
      </trkpt>
      <trkpt lat="48.55129" lon="2.1276">
        <ele>73</ele>
      </trkpt>
      <trkpt lat="48.55116" lon="2.12698">
        <ele>72.2</ele>
      </trkpt>
      <trkpt lat="48.55107" lon="2.12655">
        <ele>72.1</ele>
      </trkpt>
      <trkpt lat="48.55098" lon="2.12611">
        <ele>72</ele>
      </trkpt>
      <trkpt lat="48.55104" lon="2.12608">
        <ele>72.7</ele>
      </trkpt>
    </trkseg>
  </trk>
</gpx>